Skip to main content.

Nearby METAR Reports

 

KJYR - York, Nebraska, USA
Distance from station: NW 27mi, 43km
Updated: Thu, 21-Oct-2021 9:15pm CDT
Clear
Clear
 Wind from NE
Wind: NE 6 mph , 9 km/h
Temperature: 41°F , 5°C
Wind Chill: 37°F , 3°C
Dew Point: 36°F , 2°C
Humidity: 81%
Barometer: 30.17 inHg , 1021.7 hPa
Clouds: Clear
Visibility: 9 miles , 14 km
2021/10/22 02:15 KJYR 220215Z AUTO 05005KT 9SM CLR 05/02 A3017 RMK AO2
KLNK - Lincoln, Nebraska, USA
Distance from station: ENE 27mi, 44km
Updated: Thu, 21-Oct-2021 8:54pm CDT
Clear
Clear
 Wind from N
Wind: N 3 mph , 6 km/h
Temperature: 43°F , 6°C
Dew Point: 36°F , 2°C
Humidity: 76%
Barometer: 30.21 inHg , 1023 hPa
Clouds: Clear
Visibility: 10 miles , 16 km
2021/10/22 01:54 KLNK 220154Z AUTO 35003KT 10SM CLR 06/02 A3021 RMK AO2 SLP236 T00560017
 
KBIE - Beatrice Municip, Nebraska, USA
Distance from station: SE 36mi, 58km
Updated: Thu, 21-Oct-2021 9:15pm CDT
Clear
Clear
 Wind from calm
Wind: Calm
Temperature: 39°F , 4°C
Dew Point: 34°F , 1°C
Humidity: 81%
Barometer: 30.18 inHg , 1022 hPa
Clouds: Clear
Visibility: 10 miles , 16 km
2021/10/22 02:15 KBIE 220215Z AUTO 00000KT 10SM CLR 04/01 A3018 RMK AO2 T00370013
KHJH - Hebron Muni, Nebraska, USA
Distance from station: SSW 40mi, 64km
Updated: Thu, 21-Oct-2021 9:15pm CDT
Clear
Clear
 Wind from calm
Wind: Calm
Temperature: 45°F , 7°C
Dew Point: 39°F , 4°C
Humidity: 81%
Barometer: 30.18 inHg , 1022 hPa
Clouds: Clear
Visibility: 10 miles , 16 km
2021/10/22 02:15 KHJH 220215Z AUTO 00000KT 10SM CLR 07/04 A3018 RMK AO2 T00690035
 
KAUH - Aurora, Nebraska, USA
Distance from station: WNW 44mi, 70km
Updated: Thu, 21-Oct-2021 9:15pm CDT
Clear
Clear
 Wind from calm
Wind: Calm
Temperature: 43°F , 6°C
Dew Point: 34°F , 1°C
Humidity: 71%
Barometer: 30.18 inHg , 1022 hPa
Clouds: Clear
Visibility: 7 miles , 11 km
2021/10/22 02:15 KAUH 220215Z AUTO 00000KT 7SM CLR 06/01 A3018 RMK AO2 T00590013
KAHQ - Wahoo, Nebraska, USA
Distance from station: NE 51mi, 82km
Updated: Thu, 21-Oct-2021 9:15pm CDT
Clear
Clear
 Wind from calm
Wind: Calm
Temperature: 39°F , 4°C
Dew Point: 36°F , 2°C
Humidity: 87%
Barometer: 30.19 inHg , 1022.4 hPa
Clouds: Clear
Visibility: 10 miles , 16 km
2021/10/22 02:15 KAHQ 220215Z AUTO 00000KT 10SM CLR 04/02 A3019 RMK AO2 T00390022
 
KOLU - Columbus Muni, Nebraska, USA
Distance from station: N 55mi, 88km
Updated: Thu, 21-Oct-2021 8:56pm CDT
Clear
Clear
 Wind from calm
Wind: Calm
Temperature: 37°F , 3°C
Dew Point: 34°F , 1°C
Humidity: 87%
Barometer: 30.19 inHg , 1022.4 hPa
Clouds: Clear
Visibility: 10 miles , 16 km
2021/10/22 01:56 KOLU 220156Z AUTO 00000KT 10SM CLR 03/01 A3019 RMK AO2 SLP239 T00280011
KGRI - Grand Island, Nebraska, USA
Distance from station: WNW 61mi, 99km
Updated: Thu, 21-Oct-2021 8:53pm CDT
Clear
Clear
 Wind from ESE
Wind: ESE 3 mph , 6 km/h
Temperature: 45°F , 7°C
Dew Point: 36°F , 2°C
Humidity: 71%
Barometer: 30.18 inHg , 1022 hPa
Clouds: Clear
Visibility: 10 miles , 16 km
2021/10/22 01:53 KGRI 220153Z AUTO 11003KT 10SM CLR 07/02 A3018 RMK AO2 SLP232 T00720022
 
KHSI - Hastings, Nebraska, USA
Distance from station: W 64mi, 103km
Updated: Thu, 21-Oct-2021 8:53pm CDT
Haze, Clear
Haze, Clear
 Wind from NE
Wind: NE 3 mph , 6 km/h
Temperature: 45°F , 7°C
Dew Point: 34°F , 1°C
Humidity: 66%
Barometer: 30.18 inHg , 1022 hPa
Summary: Haze
Clouds: Clear
Visibility: 3 miles , 5 km
2021/10/22 01:53 KHSI 220153Z AUTO 05003KT 3SM HZ CLR 07/01 A3018 RMK AO2 SLP230 T00670011
KFET - Fremont Muni Arp, Nebraska, USA
Distance from station: NNE 66mi, 106km
Updated: Thu, 21-Oct-2021 9:15pm CDT
Clear
Clear
 Wind from calm
Wind: Calm
Temperature: 39°F , 4°C
Dew Point: 36°F , 2°C
Humidity: 87%
Barometer: 30.19 inHg , 1022.4 hPa
Clouds: Clear
Visibility: 10 miles , 16 km
2021/10/22 02:15 KFET 220215Z AUTO 00000KT 10SM CLR 04/02 A3019 RMK AO2 T00350017
 
KMLE - Omaha/Millard, Nebraska, USA
Distance from station: NE 69mi, 110km
Updated: Thu, 21-Oct-2021 9:15pm CDT
Clear
Clear
 Wind from calm
Wind: Calm
Temperature: 43°F , 6°C
Dew Point: 39°F , 4°C
Humidity: 87%
Barometer: 30.19 inHg , 1022.4 hPa
Clouds: Clear
Visibility: 10 miles , 16 km
2021/10/22 02:15 KMLE 220215Z AUTO 00000KT 10SM CLR 06/04 A3019 RMK AO2 T00610036
KPMV - Plattsmouth Muni, Nebraska, USA
Distance from station: ENE 71mi, 114km
Updated: Thu, 21-Oct-2021 9:15pm CDT
Clear
Clear
 Wind from NNW
Wind: NNW 3 mph , 6 km/h
Temperature: 43°F , 6°C
Dew Point: 37°F , 3°C
Humidity: 81%
Barometer: 30.18 inHg , 1022 hPa
Clouds: Clear
Visibility: 10 miles , 16 km
2021/10/22 02:15 KPMV 220215Z AUTO 33003KT 10SM CLR 06/03 A3018 RMK AO2 T00580032
 
KAFK - Nebraska City, Nebraska, USA
Distance from station: E 72mi, 116km
Updated: Thu, 21-Oct-2021 9:15pm CDT
Clear
Clear
 Wind from N
Wind: N 6 mph , 9 km/h
Temperature: 43°F , 6°C
Wind Chill: 39°F , 4°C
Dew Point: 37°F , 3°C
Humidity: 81%
Barometer: 30.18 inHg , 1022 hPa
Clouds: Clear
Visibility: 10 miles , 16 km
2021/10/22 02:15 KAFK 220215Z AUTO 36005KT 10SM CLR 06/03 A3018 RMK AO2 T00570030
KOFF - Offutt Afb/Belle, Nebraska, USA
Distance from station: ENE 75mi, 121km
Updated: Thu, 21-Oct-2021 8:56pm CDT
Partly Cloudy
Partly Cloudy
 Wind from WNW
Wind: WNW 5 mph , 7 km/h
Temperature: 45°F , 7°C
Wind Chill: 42°F , 6°C
Dew Point: 37°F , 3°C
Humidity: 76%
Barometer: 30.21 inHg , 1023 hPa
Clouds: Partly Cloudy
Visibility: 10 miles , 16 km
Cloud details: Partly Cloudy 2000 ft
2021/10/22 01:56 KOFF 220156Z 30004KT 10SM SCT020 07/03 A3021 RMK AO2A SLP240 T00680027 PWINO PNO FZRANO TSNO VISNO RWY12 CHINO RWY12 $
 
KBTA - Blair Muni, Nebraska, USA
Distance from station: NE 78mi, 125km
Updated: Thu, 21-Oct-2021 9:15pm CDT
Clear
Clear
 Wind from calm
Wind: Calm
Temperature: 41°F , 5°C
Dew Point: 37°F , 3°C
Humidity: 87%
Barometer: 30.18 inHg , 1022 hPa
Clouds: Clear
Visibility: 10 miles , 16 km
2021/10/22 02:15 KBTA 220215Z AUTO 00000KT 10SM CLR 05/03 A3018 RMK AO2 T00450030
KCNK - Concordia, Kansas, USA
Distance from station: SSW 80mi, 129km
Updated: Thu, 21-Oct-2021 8:55pm CDT
Clear
Clear
 Wind from calm
Wind: Calm
Temperature: 50°F , 10°C
Dew Point: 36°F , 2°C
Humidity: 58%
Barometer: 30.17 inHg , 1021.7 hPa
Clouds: Clear
Visibility: 10 miles , 16 km
2021/10/22 01:55 KCNK 220155Z AUTO 00000KT 10SM CLR 10/02 A3017 RMK AO2 SLP221 T01000022
 
KOMA - Omaha/Eppley, Nebraska, USA
Distance from station: NE 82mi, 133km
Updated: Thu, 21-Oct-2021 8:52pm CDT
Mostly Cloudy
Mostly Cloudy
 Wind from NW
Wind: NW 5 mph , 7 km/h
Temperature: 45°F , 7°C
Wind Chill: 42°F , 6°C
Dew Point: 37°F , 3°C
Humidity: 76%
Barometer: 30.19 inHg , 1022.4 hPa
Clouds: Mostly Cloudy
Visibility: 10 miles , 16 km
Cloud details: Mostly Cloudy 2600 ft
2021/10/22 01:52 KOMA 220152Z 32004KT 10SM BKN026 07/03 A3019 RMK AO2 SLP229 T00670033
KBVN - Albion Muni, Nebraska, USA
Distance from station: NNW 86mi, 138km
Updated: Thu, 21-Oct-2021 9:15pm CDT
Clear
Clear
 Wind from calm
Wind: Calm
Temperature: 36°F , 2°C
Dew Point: 36°F , 2°C
Humidity: 100%
Barometer: 30.18 inHg , 1022 hPa
Clouds: Clear
Visibility: 10 miles , 16 km
2021/10/22 02:15 KBVN 220215Z AUTO 00000KT 10SM CLR 02/02 A3018 RMK AO2 T00220017
 
KCBF - Council Bluffs, Iowa, USA
Distance from station: ENE 87mi, 139km
Updated: Thu, 21-Oct-2021 9:15pm CDT
Overcast
Overcast
 Wind from N
Wind: N 5 mph , 7 km/h
Temperature: 43°F , 6°C
Wind Chill: 40°F , 4°C
Dew Point: 37°F , 3°C
Humidity: 81%
Barometer: 30.17 inHg , 1021.7 hPa
Clouds: Overcast
Visibility: 10 miles , 16 km
Cloud details: Overcast 2200 ft
2021/10/22 02:15 KCBF 220215Z AUTO 35004KT 10SM OVC022 06/03 A3017 RMK AO2
KOFK - Norfolk, Nebraska, USA
Distance from station: N 92mi, 148km
Updated: Thu, 21-Oct-2021 8:56pm CDT
Clear
Clear
 Wind from calm
Wind: Calm
Temperature: 37°F , 3°C
Dew Point: 30°F , -1°C
Humidity: 75%
Barometer: 30.18 inHg , 1022 hPa
Clouds: Clear
Visibility: 10 miles , 16 km
2021/10/22 01:56 KOFK 220156Z AUTO 00000KT 10SM CLR 03/M01 A3018 RMK AO2 SLP231 T00331006

Metar display script from Saratoga-Weather.org